Time;durP1;ratioP1;P1;durP2;ratioP2;P2;SDS_P1;SDS_P2;PMS_P1;PMS_P2;Temp;Humidity;BMP_temperature;BMP_pressure;BME280_temperature;BME280_humidity;BME280_pressure;Samples;Min_cycle;Max_cycle;Signal;HPM_P1;HPM_P2
2021/04/07 00:00:22;;;;;;;10.68;8.02;;;;;;;-2.52;100.00;95353.59;1020022;29;20510;-49
2021/04/07 00:00:53;;;;;;;14.02;8.38;;;;;;;-2.48;100.00;95358.59;1015990;29;20402;-49
2021/04/07 00:01:24;;;;;;;10.93;6.90;;;;;;;-2.52;100.00;95357.00;1019834;29;20020;-49
2021/04/07 00:01:54;;;;;;;14.55;7.63;;;;;;;-2.48;100.00;95355.19;1012026;29;20017;-50
2021/04/07 00:02:25;;;;;;;9.57;6.57;;;;;;;-2.45;100.00;95355.13;1008218;29;20025;-49
2021/04/07 00:02:56;;;;;;;10.52;6.90;;;;;;;-2.39;100.00;95360.06;1015974;29;20024;-47
2021/04/07 00:03:26;;;;;;;11.55;7.45;;;;;;;-2.39;100.00;95358.31;1011802;29;20032;-50
2021/04/07 00:03:57;;;;;;;9.15;6.25;;;;;;;-2.37;100.00;95353.16;1011866;29;20016;-48
2021/04/07 00:04:28;;;;;;;8.98;6.38;;;;;;;-2.38;100.00;95354.06;1019465;29;20434;-49
2021/04/07 00:05:01;;;;;;;11.20;6.90;;;;;;;-2.42;100.00;95358.44;1019606;29;20098;-49
2021/04/07 00:05:34;;;;;;;7.80;6.02;;;;;;;-2.39;100.00;95344.66;1012089;29;20455;-49
2021/04/07 00:06:05;;;;;;;8.68;5.48;;;;;;;-2.40;100.00;95358.41;1016032;29;20507;-48
2021/04/07 00:06:36;;;;;;;7.78;5.78;;;;;;;-2.39;100.00;95357.50;1023857;29;20016;-48
2021/04/07 00:07:07;;;;;;;8.00;5.35;;;;;;;-2.39;100.00;95354.94;1015943;29;20479;-50
2021/04/07 00:07:38;;;;;;;10.14;5.82;;;;;;;-2.44;100.00;95349.94;1011994;29;20024;-49
2021/04/07 00:08:10;;;;;;;6.88;4.90;;;;;;;-2.44;100.00;95346.53;1015945;29;20538;-49
2021/04/07 00:08:46;;;;;;;8.44;4.72;;;;;;;-2.43;100.00;95346.47;1008114;29;20028;-50
2021/04/07 00:09:17;;;;;;;6.38;4.42;;;;;;;-2.44;100.00;95336.25;1013279;29;20151;-50
2021/04/07 00:09:48;;;;;;;6.85;4.80;;;;;;;-2.41;100.00;95346.44;1019788;29;20023;-49
2021/04/07 00:10:20;;;;;;;8.15;5.40;;;;;;;-2.40;100.00;95348.97;1023774;29;20089;-48
2021/04/07 00:10:52;;;;;;;7.32;5.18;;;;;;;-2.46;100.00;95338.03;1019955;29;20027;-48
2021/04/07 00:11:22;;;;;;;8.24;5.24;;;;;;;-2.43;100.00;95348.22;1015873;29;20482;-48
2021/04/07 00:11:53;;;;;;;9.48;6.63;;;;;;;-2.44;100.00;95343.94;1023733;29;20063;-49
2021/04/07 00:12:24;;;;;;;9.30;6.20;;;;;;;-2.49;100.00;95335.56;1023778;29;20022;-50
2021/04/07 00:12:55;;;;;;;13.27;6.47;;;;;;;-2.49;100.00;95333.00;1023832;29;20020;-49
2021/04/07 00:13:26;;;;;;;8.57;6.00;;;;;;;-2.45;100.00;95337.16;1015852;29;20438;-48
2021/04/07 00:13:58;;;;;;;9.80;5.95;;;;;;;-2.40;100.00;95333.56;1015732;29;20016;-49
2021/04/07 00:14:28;;;;;;;8.30;5.20;;;;;;;-2.34;100.00;95342.81;1012080;29;20036;-48
2021/04/07 00:14:59;;;;;;;9.38;5.68;;;;;;;-2.33;100.00;95341.91;1012023;29;20463;-48
2021/04/07 00:15:30;;;;;;;8.20;5.57;;;;;;;-2.31;100.00;95340.13;1008289;29;20504;-47
2021/04/07 00:16:02;;;;;;;9.85;6.18;;;;;;;-2.46;100.00;95333.75;1011871;29;20020;-51
2021/04/07 00:16:33;;;;;;;9.66;6.08;;;;;;;-2.46;100.00;95345.72;1015899;29;20020;-49
2021/04/07 00:17:04;;;;;;;7.95;4.75;;;;;;;-2.44;100.00;95343.94;1020015;29;20446;-50
2021/04/07 00:17:34;;;;;;;8.82;5.15;;;;;;;-2.39;100.00;95342.94;1012038;29;20464;-49
2021/04/07 00:18:05;;;;;;;9.32;5.63;;;;;;;-2.39;100.00;95342.09;1015737;29;20060;-49
2021/04/07 00:18:36;;;;;;;7.05;5.00;;;;;;;-2.32;100.00;95342.78;1011998;29;20048;-49
2021/04/07 00:19:07;;;;;;;12.90;5.68;;;;;;;-2.33;100.00;95341.91;1015850;29;20352;-48
2021/04/07 00:19:38;;;;;;;7.00;4.72;;;;;;;-2.39;100.00;95344.66;1008141;29;20024;-49
2021/04/07 00:20:11;;;;;;;7.82;5.04;;;;;;;-2.36;100.00;95342.84;1015760;29;20103;-49
2021/04/07 00:20:41;;;;;;;7.94;5.02;;;;;;;-2.38;100.00;95336.94;1012042;29;20604;-49
2021/04/07 00:21:12;;;;;;;8.00;5.00;;;;;;;-2.35;100.00;95347.13;1019798;29;20028;-49
2021/04/07 00:21:43;;;;;;;8.25;5.20;;;;;;;-2.30;100.00;95346.13;1012028;29;20436;-49
2021/04/07 00:22:14;;;;;;;6.40;4.68;;;;;;;-2.31;100.00;95347.84;1019741;29;20020;-48
2021/04/07 00:22:44;;;;;;;7.53;5.28;;;;;;;-2.33;100.00;95339.34;1012020;29;20020;-49
2021/04/07 00:23:15;;;;;;;9.57;5.05;;;;;;;-2.30;100.00;95344.41;1008210;29;20017;-49
2021/04/07 00:23:46;;;;;;;11.00;5.75;;;;;;;-2.30;100.00;95341.00;1007794;29;20077;-49
2021/04/07 00:24:17;;;;;;;8.90;5.32;;;;;;;-2.29;100.00;95342.66;1011972;29;20069;-49
2021/04/07 00:24:47;;;;;;;7.72;5.00;;;;;;;-2.26;100.00;95345.16;1019933;29;20020;-50
2021/04/07 00:25:19;;;;;;;8.95;5.25;;;;;;;-2.23;100.00;95340.75;1008256;29;20017;-49
2021/04/07 00:25:50;;;;;;;10.28;5.22;;;;;;;-2.27;100.00;95336.63;1008162;29;20039;-50
2021/04/07 00:26:21;;;;;;;9.58;6.00;;;;;;;-2.24;100.00;95335.69;1011876;29;20021;-49
2021/04/07 00:26:53;;;;;;;8.10;5.62;;;;;;;-2.21;100.00;95340.72;1019938;29;20087;-49
2021/04/07 00:27:27;;;;;;;9.93;6.07;;;;;;;-2.21;100.00;95339.00;1023810;29;20527;-51
2021/04/07 00:28:02;;;;;;;8.28;5.54;;;;;;;-2.26;100.00;95342.59;1015818;29;20019;-49
2021/04/07 00:28:33;;;;;;;9.38;5.76;;;;;;;-2.24;100.00;95341.63;1008064;29;20058;-49
2021/04/07 00:29:03;;;;;;;8.32;5.45;;;;;;;-2.31;100.00;95322.19;1008201;29;20097;-51
2021/04/07 00:29:34;;;;;;;10.68;6.63;;;;;;;-2.29;100.00;95340.97;1019797;29;20016;-50
2021/04/07 00:30:06;;;;;;;9.10;6.22;;;;;;;-2.36;100.00;95339.44;1015835;29;20116;-49
2021/04/07 00:30:38;;;;;;;8.68;6.42;;;;;;;-2.32;100.00;95347.91;1011862;29;20137;-50
2021/04/07 00:31:08;;;;;;;9.52;6.08;;;;;;;-2.25;100.00;95339.97;1008280;29;20571;-48
2021/04/07 00:31:39;;;;;;;10.05;6.70;;;;;;;-2.25;100.00;95342.53;1012059;29;20092;-48
2021/04/07 00:32:10;;;;;;;9.05;6.93;;;;;;;-2.25;100.00;95339.13;1016036;29;20032;-50
2021/04/07 00:32:41;;;;;;;11.16;6.92;;;;;;;-2.22;100.00;95344.16;1011816;29;20141;-48
2021/04/07 00:33:14;;;;;;;11.10;6.70;;;;;;;-2.21;100.00;95346.69;1019751;29;20039;-48
2021/04/07 00:33:45;;;;;;;9.30;6.36;;;;;;;-2.22;100.00;95339.03;1015735;29;20450;-49
2021/04/07 00:34:16;;;;;;;7.85;5.72;;;;;;;-2.19;100.00;95339.78;1012013;29;20060;-51
2021/04/07 00:34:46;;;;;;;7.32;5.53;;;;;;;-2.16;100.00;95339.69;1008057;29;20503;-50
2021/04/07 00:35:17;;;;;;;9.50;6.20;;;;;;;-2.22;100.00;95344.16;1012010;29;20395;-50
2021/04/07 00:35:48;;;;;;;10.27;5.32;;;;;;;-2.19;100.00;95344.91;1012012;29;20039;-50
2021/04/07 00:36:19;;;;;;;11.73;6.80;;;;;;;-2.17;100.00;95334.59;1015902;29;20023;-49
2021/04/07 00:36:49;;;;;;;10.57;6.72;;;;;;;-2.19;100.00;95344.09;1011938;29;20095;-49
2021/04/07 00:37:20;;;;;;;11.52;7.25;;;;;;;-2.23;100.00;95338.19;1015944;29;20107;-50
2021/04/07 00:37:51;;;;;;;8.73;5.88;;;;;;;-2.17;100.00;95335.44;1015956;29;20487;-49
2021/04/07 00:38:22;;;;;;;11.23;6.20;;;;;;;-2.15;100.00;95341.34;1015910;29;20510;-50
2021/04/07 00:38:53;;;;;;;9.65;7.10;;;;;;;-2.17;100.00;95335.44;1019687;29;20024;-49
2021/04/07 00:39:24;;;;;;;8.45;7.25;;;;;;;-2.22;100.00;95331.34;1015854;29;20122;-51
2021/04/07 00:39:55;;;;;;;8.90;6.22;;;;;;;-2.16;100.00;95337.13;1015800;29;20016;-49
2021/04/07 00:40:25;;;;;;;10.55;6.43;;;;;;;-2.16;100.00;95333.69;1011969;29;20117;-49
2021/04/07 00:40:56;;;;;;;12.02;6.03;;;;;;;-2.10;100.00;95337.81;1015804;29;20016;-49
2021/04/07 00:41:27;;;;;;;8.68;5.63;;;;;;;-2.06;100.00;95337.69;1011966;29;20103;-49
2021/04/07 00:42:05;;;;;;;7.60;5.57;;;;;;;-2.11;100.00;95338.72;1004300;29;20029;-49
2021/04/07 00:42:36;;;;;;;11.26;6.26;;;;;;;-2.13;100.00;95343.06;1005363;29;20418;-52
2021/04/07 00:43:07;;;;;;;11.00;6.10;;;;;;;-2.23;100.00;95315.09;1011844;29;20024;-49
2021/04/07 00:43:38;;;;;;;9.35;5.80;;;;;;;-2.12;100.00;95339.59;1011704;29;20527;-49
2021/04/07 00:44:09;;;;;;;8.18;5.75;;;;;;;-2.19;100.00;95339.78;1004216;29;20483;-49
2021/04/07 00:44:40;;;;;;;11.40;6.52;;;;;;;-2.26;100.00;95340.00;1015906;29;20434;-49
2021/04/07 00:45:11;;;;;;;9.15;6.50;;;;;;;-2.35;100.00;95336.84;1019664;29;20088;-48
2021/04/07 00:45:42;;;;;;;11.28;6.68;;;;;;;-2.30;100.00;95335.88;1008828;29;20021;-48
2021/04/07 00:46:13;;;;;;;9.00;5.82;;;;;;;-2.26;100.00;95338.28;1019879;29;20127;-49
2021/04/07 00:46:43;;;;;;;7.60;5.63;;;;;;;-2.24;100.00;95335.69;1015942;29;20028;-49
2021/04/07 00:47:15;;;;;;;8.75;5.97;;;;;;;-2.20;100.00;95335.53;1015728;29;20044;-49
2021/04/07 00:47:49;;;;;;;8.90;5.62;;;;;;;-2.16;100.00;95342.25;1008086;29;20027;-51
2021/04/07 00:48:20;;;;;;;7.14;5.44;;;;;;;-2.25;100.00;95337.41;1015841;29;20062;-49
2021/04/07 00:48:50;;;;;;;7.50;5.68;;;;;;;-2.24;100.00;95338.25;1023880;29;20029;-50
2021/04/07 00:49:21;;;;;;;8.20;6.18;;;;;;;-2.21;100.00;95333.03;1011805;29;20021;-50
2021/04/07 00:49:52;;;;;;;9.30;6.20;;;;;;;-2.21;100.00;95331.28;1027736;28;20512;-48
2021/04/07 00:50:25;;;;;;;8.93;6.07;;;;;;;-2.23;100.00;95340.75;1019847;29;20065;-49
2021/04/07 00:50:55;;;;;;;10.82;6.90;;;;;;;-2.26;100.00;95340.84;1015846;29;20032;-48
2021/04/07 00:51:27;;;;;;;8.50;5.78;;;;;;;-2.18;100.00;95341.47;1019648;29;20027;-49
2021/04/07 00:51:57;;;;;;;9.44;6.08;;;;;;;-2.21;100.00;95341.56;1016399;29;20028;-49
2021/04/07 00:52:28;;;;;;;7.45;5.28;;;;;;;-2.19;100.00;95344.91;1015901;29;20091;-48
2021/04/07 00:52:59;;;;;;;9.95;5.18;;;;;;;-2.19;100.00;95339.78;1011906;29;20032;-47
2021/04/07 00:53:30;;;;;;;10.50;6.22;;;;;;;-2.19;100.00;95338.94;1015573;29;20144;-48
2021/04/07 00:54:01;;;;;;;9.82;5.70;;;;;;;-2.22;100.00;95339.03;1012022;29;20013;-50
2021/04/07 00:54:31;;;;;;;13.20;7.13;;;;;;;-2.27;100.00;95352.00;1015869;29;20513;-49
2021/04/07 00:55:03;;;;;;;7.93;5.57;;;;;;;-2.27;100.00;95348.59;1011978;29;20031;-49
2021/04/07 00:55:36;;;;;;;8.62;5.76;;;;;;;-2.22;100.00;95336.47;1011739;29;20505;-48
2021/04/07 00:56:07;;;;;;;9.84;5.22;;;;;;;-2.20;100.00;95345.78;1008140;29;20029;-50
2021/04/07 00:56:37;;;;;;;9.15;6.00;;;;;;;-2.20;100.00;95344.94;1015868;29;20024;-49
2021/04/07 00:57:08;;;;;;;9.75;5.65;;;;;;;-2.30;100.00;95346.13;1008188;29;20038;-50
2021/04/07 00:57:40;;;;;;;8.43;5.75;;;;;;;-2.31;100.00;95347.00;1011825;29;20021;-49
2021/04/07 00:58:11;;;;;;;8.52;5.16;;;;;;;-2.27;100.00;95346.88;1015821;29;20024;-49
2021/04/07 00:58:42;;;;;;;8.90;5.32;;;;;;;-2.29;100.00;95347.78;1015903;29;20120;-49
2021/04/07 00:59:14;;;;;;;8.02;5.80;;;;;;;-2.24;100.00;95349.34;1011848;29;20032;-50
2021/04/07 00:59:46;;;;;;;7.70;5.42;;;;;;;-2.33;100.00;95351.34;1015771;29;20294;-49
2021/04/07 01:00:17;;;;;;;9.92;5.94;;;;;;;-2.37;100.00;95348.03;1019748;29;20035;-49
2021/04/07 01:00:48;;;;;;;11.56;6.26;;;;;;;-2.34;100.00;95345.38;1019741;29;20024;-48
2021/04/07 01:01:19;;;;;;;7.90;5.43;;;;;;;-2.33;100.00;95346.22;1019896;29;20110;-50
2021/04/07 01:01:50;;;;;;;6.88;5.45;;;;;;;-2.35;100.00;95357.38;1015682;29;20050;-49
2021/04/07 01:02:21;;;;;;;9.00;5.22;;;;;;;-2.28;100.00;95342.63;1023780;29;20129;-49
2021/04/07 01:02:53;;;;;;;8.02;5.15;;;;;;;-2.25;100.00;95352.81;1019698;29;20418;-50
2021/04/07 01:03:24;;;;;;;9.74;5.20;;;;;;;-2.22;100.00;95346.72;1011726;29;20076;-49
2021/04/07 01:03:55;;;;;;;7.88;4.95;;;;;;;-2.24;100.00;95341.63;1015607;29;20463;-48
2021/04/07 01:04:26;;;;;;;8.05;4.70;;;;;;;-2.24;100.00;95340.81;1016080;29;20024;-48
2021/04/07 01:04:56;;;;;;;8.75;4.90;;;;;;;-2.26;100.00;95351.09;1008225;29;20113;-49
2021/04/07 01:05:27;;;;;;;6.70;4.75;;;;;;;-2.23;100.00;95342.50;1008109;29;20443;-47
2021/04/07 01:05:58;;;;;;;7.82;4.90;;;;;;;-2.27;100.00;95346.03;1008040;29;20025;-49
2021/04/07 01:06:29;;;;;;;8.42;4.72;;;;;;;-2.26;100.00;95350.28;1011933;29;20272;-46
2021/04/07 01:07:00;;;;;;;7.32;4.38;;;;;;;-2.30;100.00;95346.97;1011951;29;20495;-47
2021/04/07 01:07:31;;;;;;;7.22;4.75;;;;;;;-2.29;100.00;95352.94;1015976;29;20144;-49
2021/04/07 01:08:02;;;;;;;6.78;4.43;;;;;;;-2.29;100.00;95346.09;1019776;29;20051;-50
2021/04/07 01:08:34;;;;;;;8.07;4.75;;;;;;;-2.28;100.00;95349.50;1015822;29;20020;-51
2021/04/07 01:09:05;;;;;;;8.88;4.18;;;;;;;-2.28;100.00;95344.34;1011804;29;20017;-49
2021/04/07 01:09:36;;;;;;;8.10;4.40;;;;;;;-2.24;100.00;95353.63;1015790;29;20030;-49
2021/04/07 01:10:08;;;;;;;7.00;4.68;;;;;;;-2.20;100.00;95342.38;1015669;29;20067;-50
2021/04/07 01:10:39;;;;;;;7.84;4.44;;;;;;;-2.22;100.00;95345.00;1019715;29;20062;-50
2021/04/07 01:11:10;;;;;;;7.30;4.07;;;;;;;-2.19;100.00;95344.91;1011899;29;20028;-49
2021/04/07 01:11:41;;;;;;;10.23;3.85;;;;;;;-2.17;100.00;95345.69;1015801;29;20324;-49
2021/04/07 01:12:12;;;;;;;6.45;4.10;;;;;;;-2.16;100.00;95344.84;1015712;29;20024;-49
2021/04/07 01:12:44;;;;;;;7.43;4.50;;;;;;;-2.19;100.00;95338.94;1015927;29;20156;-49
2021/04/07 01:13:15;;;;;;;6.72;4.22;;;;;;;-2.16;100.00;95344.84;1011798;29;20020;-48
2021/04/07 01:13:45;;;;;;;8.10;4.72;;;;;;;-2.18;100.00;95344.03;1007817;29;20756;-50
2021/04/07 01:14:16;;;;;;;7.30;3.63;;;;;;;-2.22;100.00;95339.88;1011862;29;20031;-47
2021/04/07 01:14:47;;;;;;;7.20;3.92;;;;;;;-2.23;100.00;95335.63;1008043;29;20056;-49
2021/04/07 01:15:18;;;;;;;6.88;4.03;;;;;;;-2.18;100.00;95344.03;1008083;29;20025;-50
2021/04/07 01:15:48;;;;;;;7.57;4.30;;;;;;;-2.20;100.00;95332.97;1016492;29;20063;-50
2021/04/07 01:16:19;;;;;;;6.65;4.03;;;;;;;-2.19;100.00;95347.47;1013143;29;20168;-49
2021/04/07 01:16:50;;;;;;;5.82;3.90;;;;;;;-2.18;100.00;95344.03;1025036;29;20074;-50
2021/04/07 01:17:21;;;;;;;6.47;3.85;;;;;;;-2.12;100.00;95339.59;1021075;29;20030;-48
2021/04/07 01:17:52;;;;;;;6.80;4.15;;;;;;;-2.11;100.00;95338.72;1021174;29;20030;-50
2021/04/07 01:18:23;;;;;;;7.22;4.22;;;;;;;-2.09;100.00;95340.34;1017074;29;20032;-50
2021/04/07 01:18:53;;;;;;;6.30;4.28;;;;;;;-2.11;100.00;95331.84;1013255;29;20048;-49
2021/04/07 01:19:25;;;;;;;7.43;4.07;;;;;;;-2.11;100.00;95336.97;1013192;29;20056;-48
2021/04/07 01:19:55;;;;;;;11.24;4.64;;;;;;;-2.11;100.00;95336.97;1017148;29;20083;-49
2021/04/07 01:20:26;;;;;;;8.40;4.10;;;;;;;-2.11;100.00;95331.00;1009225;29;20542;-49
2021/04/07 01:20:57;;;;;;;7.43;3.67;;;;;;;-2.07;100.00;95332.59;1017083;29;20027;-49
2021/04/07 01:21:28;;;;;;;7.00;4.35;;;;;;;-2.05;100.00;95335.94;1013272;29;20123;-50
2021/04/07 01:21:59;;;;;;;8.93;3.72;;;;;;;-2.08;100.00;95341.16;1009360;29;20571;-49
2021/04/07 01:22:31;;;;;;;7.45;3.83;;;;;;;-2.19;100.00;95316.69;1013190;29;20025;-48
2021/04/07 01:23:03;;;;;;;6.56;3.58;;;;;;;-2.06;100.00;95336.84;1021079;29;20023;-50
2021/04/07 01:23:34;;;;;;;6.62;3.80;;;;;;;-2.05;100.00;95338.50;1016988;29;20028;-47
2021/04/07 01:24:07;;;;;;;6.06;3.90;;;;;;;-2.08;100.00;95334.31;1013687;29;20464;-48
2021/04/07 01:24:38;;;;;;;5.88;3.68;;;;;;;-2.12;100.00;95325.06;1020914;29;20027;-50
2021/04/07 01:25:10;;;;;;;6.03;3.35;;;;;;;-2.08;100.00;95338.59;1025024;29;20501;-49
2021/04/07 01:25:40;;;;;;;8.30;4.42;;;;;;;-2.06;100.00;95336.84;1020993;29;20019;-49
2021/04/07 01:26:12;;;;;;;5.22;3.70;;;;;;;-2.09;100.00;95330.06;1024975;29;20447;-49
2021/04/07 01:26:42;;;;;;;6.82;4.08;;;;;;;-2.06;100.00;95336.84;1020993;29;20477;-49
2021/04/07 01:27:14;;;;;;;7.72;3.65;;;;;;;-2.10;100.00;95332.69;1009294;29;20032;-47
2021/04/07 01:27:45;;;;;;;6.28;3.64;;;;;;;-2.08;100.00;95336.03;1017177;29;20020;-48
2021/04/07 01:28:16;;;;;;;6.95;3.50;;;;;;;-2.08;100.00;95331.75;1013273;29;20472;-49
2021/04/07 01:28:47;;;;;;;6.97;3.97;;;;;;;-2.07;100.00;95337.72;1017069;29;20023;-49
2021/04/07 01:29:18;;;;;;;7.65;3.90;;;;;;;-2.08;100.00;95330.91;1013264;29;20013;-50
2021/04/07 01:29:49;;;;;;;5.64;3.80;;;;;;;-2.06;100.00;95345.38;1009381;29;20028;-49
2021/04/07 01:30:20;;;;;;;7.53;3.47;;;;;;;-2.09;100.00;95336.94;1013191;29;20032;-50
2021/04/07 01:30:50;;;;;;;5.55;3.40;;;;;;;-2.11;100.00;95324.16;1021085;29;20016;-49
2021/04/07 01:31:21;;;;;;;7.15;3.90;;;;;;;-2.05;100.00;95338.50;1024979;29;20262;-49
2021/04/07 01:31:53;;;;;;;6.15;3.88;;;;;;;-2.08;100.00;95343.72;1013197;29;20025;-49
2021/04/07 01:32:24;;;;;;;5.56;3.38;;;;;;;-2.06;100.00;95339.41;1017102;29;20020;-48
2021/04/07 01:32:54;;;;;;;9.13;3.75;;;;;;;-2.08;100.00;95339.47;1013174;29;20029;-49
2021/04/07 01:33:25;;;;;;;6.22;3.90;;;;;;;-2.06;100.00;95345.38;1020953;29;20023;-49
2021/04/07 01:33:56;;;;;;;5.45;3.20;;;;;;;-2.15;100.00;95320.00;1016948;29;20080;-49
2021/04/07 01:34:29;;;;;;;5.35;3.50;;;;;;;-2.01;100.00;95337.53;1013171;29;20032;-49
2021/04/07 01:35:00;;;;;;;7.68;4.76;;;;;;;-2.02;100.00;95341.00;1013092;29;20481;-48
2021/04/07 01:35:30;;;;;;;5.90;3.20;;;;;;;-2.03;100.00;95340.13;1005549;29;20037;-51
2021/04/07 01:36:01;;;;;;;6.88;4.05;;;;;;;-1.98;100.00;95345.16;1017035;29;20016;-48
2021/04/07 01:36:32;;;;;;;10.35;3.83;;;;;;;-1.99;100.00;95333.19;1025076;29;20048;-49
2021/04/07 01:37:03;;;;;;;6.97;3.63;;;;;;;-1.99;100.00;95341.75;1017052;29;20020;-49
2021/04/07 01:37:34;;;;;;;6.38;3.50;;;;;;;-1.96;100.00;95335.66;1024873;29;20503;-48
2021/04/07 01:38:05;;;;;;;5.90;3.28;;;;;;;-2.01;100.00;95333.25;1021064;29;20442;-49
2021/04/07 01:38:36;;;;;;;5.60;3.90;;;;;;;-1.97;100.00;95339.97;1025085;29;20026;-47
2021/04/07 01:39:06;;;;;;;5.78;4.10;;;;;;;-1.98;100.00;95340.00;1017249;29;20491;-50
2021/04/07 01:39:37;;;;;;;6.95;3.78;;;;;;;-1.95;100.00;95347.63;1017081;29;20028;-49
2021/04/07 01:40:10;;;;;;;7.80;3.47;;;;;;;-1.97;100.00;95339.13;1013479;29;20108;-49
2021/04/07 01:40:42;;;;;;;7.12;3.60;;;;;;;-1.94;100.00;95343.31;1017080;29;20040;-49
2021/04/07 01:41:12;;;;;;;6.98;3.54;;;;;;;-1.92;100.00;95352.66;1009450;29;20503;-48
2021/04/07 01:41:44;;;;;;;8.38;3.80;;;;;;;-1.93;100.00;95345.84;1017047;29;20111;-49
2021/04/07 01:42:15;;;;;;;6.16;3.76;;;;;;;-1.90;100.00;95339.78;1022544;29;20027;-50
2021/04/07 01:42:46;;;;;;;6.50;3.88;;;;;;;-1.93;100.00;95348.41;1015726;29;20115;-50
2021/04/07 01:43:19;;;;;;;5.96;3.28;;;;;;;-1.97;100.00;95341.72;1016452;29;20024;-51
2021/04/07 01:43:49;;;;;;;5.26;3.30;;;;;;;-1.97;100.00;95341.72;1027318;28;20027;-50
2021/04/07 01:44:22;;;;;;;6.25;3.38;;;;;;;-1.94;100.00;95339.03;1027754;29;20031;-49
2021/04/07 01:44:52;;;;;;;6.40;3.35;;;;;;;-1.92;100.00;95341.53;1019466;29;20044;-49
2021/04/07 01:45:24;;;;;;;6.28;3.88;;;;;;;-1.95;100.00;95345.06;1015862;29;20249;-51
2021/04/07 01:45:56;;;;;;;4.62;3.34;;;;;;;-1.95;100.00;95337.38;1013287;29;20017;-50
2021/04/07 01:46:27;;;;;;;7.48;3.50;;;;;;;-1.94;100.00;95338.19;1013001;29;20013;-50
2021/04/07 01:46:57;;;;;;;6.18;3.67;;;;;;;-1.93;100.00;95345.84;1013001;29;20013;-53
2021/04/07 01:47:28;;;;;;;7.90;3.65;;;;;;;-1.96;100.00;95351.91;1016668;29;20017;-49
2021/04/07 01:47:59;;;;;;;6.98;3.94;;;;;;;-1.94;100.00;95339.03;1020706;29;20084;-51
2021/04/07 01:48:30;;;;;;;5.32;3.38;;;;;;;-1.96;100.00;95339.06;1020603;29;20443;-48
2021/04/07 01:49:03;;;;;;;10.84;4.08;;;;;;;-1.94;100.00;95336.44;1014457;29;20021;-51
2021/04/07 01:49:33;;;;;;;7.98;3.70;;;;;;;-1.90;100.00;95343.16;1017003;29;20016;-50
2021/04/07 01:50:05;;;;;;;7.72;3.50;;;;;;;-1.89;100.00;95344.84;1021083;29;20102;-49
2021/04/07 01:50:36;;;;;;;5.78;3.36;;;;;;;-1.90;100.00;95347.47;1021149;29;20064;-48
2021/04/07 01:51:08;;;;;;;7.47;3.88;;;;;;;-1.93;100.00;95345.00;1012922;29;20096;-49
2021/04/07 01:51:39;;;;;;;7.52;3.56;;;;;;;-2.01;100.00;95343.53;1013069;29;20020;-48
2021/04/07 01:52:10;;;;;;;6.74;4.00;;;;;;;-2.01;100.00;95342.66;1021005;29;20043;-49
2021/04/07 01:52:40;;;;;;;5.93;3.50;;;;;;;-1.97;100.00;95344.28;1009231;29;20040;-49
2021/04/07 01:53:13;;;;;;;7.15;3.88;;;;;;;-1.99;100.00;95348.59;1013056;29;20021;-51
2021/04/07 01:53:43;;;;;;;7.50;3.24;;;;;;;-1.99;100.00;95354.59;1020712;29;20012;-51
2021/04/07 01:54:14;;;;;;;6.78;3.60;;;;;;;-1.97;100.00;95346.84;1005320;29;20495;-48
2021/04/07 01:54:45;;;;;;;6.32;3.50;;;;;;;-1.98;100.00;95360.53;1009084;29;20016;-49
2021/04/07 01:55:16;;;;;;;5.94;3.34;;;;;;;-1.97;100.00;95345.09;1013171;29;20405;-49
2021/04/07 01:55:47;;;;;;;6.07;3.33;;;;;;;-1.96;100.00;95353.63;1017066;29;20020;-49
2021/04/07 01:56:18;;;;;;;11.55;3.28;;;;;;;-1.95;100.00;95355.34;1017028;29;20020;-49
2021/04/07 01:56:51;;;;;;;7.00;2.92;;;;;;;-2.00;100.00;95357.19;1013139;29;20537;-48
2021/04/07 01:57:21;;;;;;;5.20;2.98;;;;;;;-1.97;100.00;95357.94;1016991;29;20521;-50
2021/04/07 01:57:52;;;;;;;5.47;3.25;;;;;;;-2.01;100.00;95356.34;1020991;29;20030;-48
2021/04/07 01:58:23;;;;;;;7.25;3.47;;;;;;;-2.12;100.00;95335.31;1021062;29;20023;-48
2021/04/07 01:59:04;;;;;;;4.70;3.25;;;;;;;-2.00;100.00;95354.63;1013167;29;20627;-48
2021/04/07 01:59:35;;;;;;;8.06;3.46;;;;;;;-2.01;100.00;95358.06;1021036;29;20020;-48
2021/04/07 02:00:09;;;;;;;5.85;3.80;;;;;;;-2.01;100.00;95360.63;1009385;29;20116;-49
2021/04/07 02:00:40;;;;;;;10.44;3.34;;;;;;;-2.01;100.00;95358.94;1013304;29;20105;-47
2021/04/07 02:01:11;;;;;;;4.82;3.08;;;;;;;-2.02;100.00;95361.53;1017117;29;20072;-49
2021/04/07 02:01:42;;;;;;;8.35;3.00;;;;;;;-2.02;100.00;95362.38;1025153;29;20023;-50
2021/04/07 02:02:13;;;;;;;8.74;3.44;;;;;;;-2.01;100.00;95355.50;1017574;29;20095;-48
2021/04/07 02:02:43;;;;;;;5.03;3.20;;;;;;;-1.98;100.00;95357.97;1017544;29;20028;-49
2021/04/07 02:03:14;;;;;;;5.97;3.50;;;;;;;-1.98;100.00;95363.94;1021314;29;20027;-49
2021/04/07 02:03:45;;;;;;;5.82;3.22;;;;;;;-2.00;100.00;95355.47;1013180;29;20017;-48
2021/04/07 02:04:16;;;;;;;5.47;3.22;;;;;;;-1.97;100.00;95363.06;1009571;29;20029;-50
2021/04/07 02:04:46;;;;;;;11.93;3.45;;;;;;;-1.98;100.00;95363.94;1016973;29;20028;-49
2021/04/07 02:05:17;;;;;;;5.95;2.92;;;;;;;-2.01;100.00;95363.19;1021167;29;20576;-48
2021/04/07 02:05:48;;;;;;;5.93;3.50;;;;;;;-2.06;100.00;95371.06;1017335;29;20175;-50
2021/04/07 02:06:19;;;;;;;5.03;3.42;;;;;;;-2.06;100.00;95360.78;1021293;29;20067;-48
2021/04/07 02:06:50;;;;;;;8.75;3.63;;;;;;;-2.06;100.00;95360.78;1025099;28;20027;-50
2021/04/07 02:07:21;;;;;;;7.50;3.53;;;;;;;-2.08;100.00;95357.44;1017296;29;20056;-48
2021/04/07 02:07:51;;;;;;;6.65;3.15;;;;;;;-2.04;100.00;95368.44;1013416;29;20037;-49
2021/04/07 02:08:22;;;;;;;4.93;3.10;;;;;;;-2.07;100.00;95371.09;1021241;29;20032;-49
2021/04/07 02:08:53;;;;;;;6.15;3.33;;;;;;;-2.08;100.00;95369.41;1021003;29;20114;-49
2021/04/07 02:09:24;;;;;;;8.43;3.30;;;;;;;-2.08;100.00;95369.41;1021117;29;20031;-48
2021/04/07 02:09:54;;;;;;;5.60;3.05;;;;;;;-2.21;100.00;95372.34;1009449;29;20029;-50
2021/04/07 02:10:25;;;;;;;5.68;3.00;;;;;;;-2.13;100.00;95378.97;1013485;29;20108;-49
2021/04/07 02:10:55;;;;;;;4.93;3.25;;;;;;;-2.11;100.00;95372.91;1021263;29;20486;-50
2021/04/07 02:11:26;;;;;;;4.85;3.35;;;;;;;-2.14;100.00;95373.00;1017388;29;20031;-49
2021/04/07 02:11:57;;;;;;;5.93;3.20;;;;;;;-2.12;100.00;95378.94;1025255;29;20027;-50
2021/04/07 02:12:28;;;;;;;5.32;2.63;;;;;;;-2.10;100.00;95363.47;1016960;29;20024;-49
2021/04/07 02:13:01;;;;;;;7.28;3.30;;;;;;;-2.09;100.00;95365.16;1020782;29;20425;-50
2021/04/07 02:13:32;;;;;;;6.18;3.32;;;;;;;-2.11;100.00;95379.78;1028641;28;20026;-48
2021/04/07 02:14:02;;;;;;;6.70;3.33;;;;;;;-2.18;100.00;95368.84;1016832;29;20032;-50
2021/04/07 02:14:33;;;;;;;6.25;3.00;;;;;;;-2.11;100.00;95377.22;1020918;29;20016;-49
2021/04/07 02:15:15;;;;;;;6.35;3.30;;;;;;;-2.12;100.00;95371.25;1017018;29;20072;-49
2021/04/07 02:15:45;;;;;;;6.90;3.72;;;;;;;-2.11;100.00;95369.50;1020805;29;20024;-50
2021/04/07 02:16:16;;;;;;;5.60;3.55;;;;;;;-2.11;100.00;95379.78;1020836;29;20028;-50
2021/04/07 02:16:58;;;;;;;5.05;3.58;;;;;;;-2.10;100.00;95377.16;1016950;29;20118;-50
2021/04/07 02:17:29;;;;;;;6.20;3.40;;;;;;;-2.12;100.00;95381.50;1020919;29;20027;-49
2021/04/07 02:17:59;;;;;;;5.00;3.42;;;;;;;-2.10;100.00;95374.59;1013087;29;20530;-50
2021/04/07 02:18:30;;;;;;;6.30;3.63;;;;;;;-2.17;100.00;95376.50;1020885;29;20032;-48
2021/04/07 02:19:01;;;;;;;6.28;3.40;;;;;;;-2.16;100.00;95385.03;1024853;29;20047;-48
2021/04/07 02:19:33;;;;;;;6.10;3.80;;;;;;;-2.16;100.00;95378.19;1008970;29;20021;-49
2021/04/07 02:20:05;;;;;;;7.26;4.00;;;;;;;-2.13;100.00;95386.69;1009126;29;20586;-48
2021/04/07 02:20:36;;;;;;;8.56;4.12;;;;;;;-2.17;100.00;95379.06;1016920;29;20032;-48
2021/04/07 02:21:08;;;;;;;6.43;3.33;;;;;;;-2.12;100.00;95381.50;1016942;29;20084;-49
2021/04/07 02:21:38;;;;;;;6.76;3.72;;;;;;;-2.12;100.00;95394.34;1020712;29;20030;-50
2021/04/07 02:22:14;;;;;;;6.03;3.75;;;;;;;-2.16;100.00;95385.88;1013014;29;20055;-48
2021/04/07 02:22:48;;;;;;;7.58;3.42;;;;;;;-2.16;100.00;95393.59;1005246;29;20559;-49
2021/04/07 02:23:19;;;;;;;6.44;3.68;;;;;;;-2.16;100.00;95385.03;1008978;29;20033;-48
2021/04/07 02:23:50;;;;;;;6.25;4.10;;;;;;;-2.18;100.00;95389.38;1017976;29;20507;-49
2021/04/07 02:24:20;;;;;;;10.23;4.60;;;;;;;-2.20;100.00;95381.72;1016998;29;20020;-49
2021/04/07 02:24:51;;;;;;;5.18;3.88;;;;;;;-2.22;100.00;95383.47;1012958;29;20060;-49
2021/04/07 02:25:22;;;;;;;7.65;4.05;;;;;;;-2.23;100.00;95392.09;1020880;29;20055;-48